VLG50WL LEBL-LEAL
Flight info
| Callsign | VLG50WL |
|---|---|
| Flight time | 0h 52m |
| Altitude | 29000 |
| Route | LOTOS DCT TORDU DCT DIKUT DCT SOPET DCT VLC |
| Aircraft | A320/M-SDE3FGHIRWY/LB1 |
Departure
| Time | 2026-05-04 16:18 |
|---|---|
| Airport | Josep Tarradellas Barcelona-El Prat Airport (LEBL) |
Arrival
| Time | 2026-05-04 17:10 |
|---|---|
| Airport | Alicante-Elche Miguel Hernández Airport (LEAL) |
| Time | Latitude | Longitude | Altitude | Speed | Heading |
|---|---|---|---|---|---|
| 2026-05-04 15:39 | 41.29115 | 2.07845 | 19 ft | 0 kts | 155° |
| 2026-05-04 15:59 | 41.29127 | 2.07838 | 19 ft | 4 kts | 155° |
| 2026-05-04 15:59 | 41.29152 | 2.07823 | 21 ft | 4 kts | 155° |
| 2026-05-04 15:59 | 41.29171 | 2.07811 | 23 ft | 4 kts | 140° |
| 2026-05-04 16:00 | 41.29183 | 2.07786 | 19 ft | 4 kts | 80° |
| 2026-05-04 16:00 | 41.29175 | 2.07757 | 23 ft | 2 kts | 65° |
| 2026-05-04 16:00 | 41.29174 | 2.07754 | 21 ft | 0 kts | 65° |
| 2026-05-04 16:06 | 41.29177 | 2.07763 | 21 ft | 4 kts | 66° |
| 2026-05-04 16:06 | 41.29274 | 2.08046 | 19 ft | 18 kts | 65° |
| 2026-05-04 16:07 | 41.29328 | 2.08204 | 19 ft | 10 kts | 65° |
| 2026-05-04 16:07 | 41.29336 | 2.08396 | 19 ft | 7 kts | 152° |
| 2026-05-04 16:08 | 41.29287 | 2.08426 | 20 ft | 7 kts | 155° |
| 2026-05-04 16:08 | 41.29121 | 2.08526 | 18 ft | 9 kts | 155° |
| 2026-05-04 16:09 | 41.29018 | 2.08588 | 19 ft | 6 kts | 155° |
| 2026-05-04 16:09 | 41.28884 | 2.08669 | 16 ft | 7 kts | 155° |
| 2026-05-04 16:10 | 41.28866 | 2.08742 | 17 ft | 8 kts | 69° |
| 2026-05-04 16:11 | 41.28921 | 2.08900 | 18 ft | 14 kts | 66° |
| 2026-05-04 16:11 | 41.28960 | 2.09016 | 16 ft | 12 kts | 65° |
| 2026-05-04 16:12 | 41.29034 | 2.09233 | 18 ft | 11 kts | 65° |
| 2026-05-04 16:12 | 41.29151 | 2.09574 | 19 ft | 11 kts | 65° |
| 2026-05-04 16:13 | 41.29237 | 2.09825 | 19 ft | 12 kts | 65° |
| 2026-05-04 16:13 | 41.29288 | 2.09943 | 18 ft | 4 kts | 56° |
| 2026-05-04 16:14 | 41.29325 | 2.10081 | 16 ft | 6 kts | 99° |
| 2026-05-04 16:14 | 41.29297 | 2.10180 | 14 ft | 3 kts | 110° |
| 2026-05-04 16:15 | 41.29296 | 2.10183 | 14 ft | 0 kts | 110° |
| 2026-05-04 16:16 | 41.29292 | 2.10199 | 14 ft | 5 kts | 110° |
| 2026-05-04 16:16 | 41.29218 | 2.10303 | 15 ft | 3 kts | 200° |
| 2026-05-04 16:17 | 41.29164 | 2.10160 | 17 ft | 40 kts | 246° |
| 2026-05-04 16:18 | 41.28148 | 2.07132 | 725 ft | 150 kts | 244° |
| 2026-05-04 16:18 | 41.27454 | 2.06131 | 1241 ft | 160 kts | 200° |
| 2026-05-04 16:19 | 41.23454 | 2.05967 | 2696 ft | 211 kts | 182° |
| 2026-05-04 16:19 | 41.20503 | 2.05833 | 4578 ft | 215 kts | 184° |
| 2026-05-04 16:20 | 41.16057 | 2.04667 | 7125 ft | 233 kts | 208° |
| 2026-05-04 16:20 | 41.13159 | 2.02672 | 9191 ft | 238 kts | 209° |
| 2026-05-04 16:21 | 41.08700 | 1.99583 | 12189 ft | 244 kts | 215° |
| 2026-05-04 16:22 | 41.06606 | 1.96016 | 13413 ft | 268 kts | 251° |
| 2026-05-04 16:22 | 41.04895 | 1.88071 | 14283 ft | 322 kts | 247° |
| 2026-05-04 16:23 | 41.02407 | 1.79657 | 16318 ft | 331 kts | 247° |
| 2026-05-04 16:24 | 40.98622 | 1.68409 | 18953 ft | 340 kts | 231° |
| 2026-05-04 16:25 | 40.95579 | 1.63583 | 20199 ft | 343 kts | 230° |
| 2026-05-04 16:26 | 40.89390 | 1.53868 | 22628 ft | 350 kts | 231° |
| 2026-05-04 16:26 | 40.84663 | 1.46450 | 24305 ft | 354 kts | 230° |
| 2026-05-04 16:27 | 40.81475 | 1.41453 | 25202 ft | 358 kts | 230° |
| 2026-05-04 16:28 | 40.76635 | 1.33895 | 26448 ft | 364 kts | 230° |
| 2026-05-04 16:28 | 40.71676 | 1.26186 | 27648 ft | 371 kts | 230° |
| 2026-05-04 16:29 | 40.64958 | 1.15759 | 28890 ft | 373 kts | 230° |
| 2026-05-04 16:30 | 40.60166 | 1.08322 | 28906 ft | 347 kts | 230° |
| 2026-05-04 16:31 | 40.57037 | 1.03493 | 28907 ft | 346 kts | 230° |
| 2026-05-04 16:32 | 40.47368 | 0.89412 | 28905 ft | 347 kts | 228° |
| 2026-05-04 16:33 | 40.40818 | 0.80130 | 28889 ft | 347 kts | 228° |
| 2026-05-04 16:34 | 40.35930 | 0.73184 | 28916 ft | 347 kts | 228° |
| 2026-05-04 16:35 | 40.26639 | 0.60021 | 28894 ft | 348 kts | 228° |
| 2026-05-04 16:36 | 40.21164 | 0.52319 | 28897 ft | 347 kts | 229° |
| 2026-05-04 16:37 | 40.16792 | 0.46158 | 28901 ft | 347 kts | 229° |
| 2026-05-04 16:38 | 40.09699 | 0.36186 | 28923 ft | 346 kts | 228° |
| 2026-05-04 16:39 | 40.02018 | 0.25465 | 28894 ft | 347 kts | 228° |
| 2026-05-04 16:40 | 39.95425 | 0.16268 | 28904 ft | 347 kts | 228° |
| 2026-05-04 16:41 | 39.87200 | 0.04825 | 28907 ft | 347 kts | 228° |
| 2026-05-04 16:43 | 39.79063 | -0.06454 | 28906 ft | 348 kts | 228° |
| 2026-05-04 16:43 | 39.74096 | -0.13315 | 28911 ft | 347 kts | 228° |
| 2026-05-04 16:45 | 39.64164 | -0.26954 | 28912 ft | 347 kts | 228° |
| 2026-05-04 16:46 | 39.55882 | -0.38307 | 28897 ft | 346 kts | 228° |
| 2026-05-04 16:47 | 39.49151 | -0.47138 | 28880 ft | 348 kts | 219° |
| 2026-05-04 16:48 | 39.42377 | -0.50530 | 28223 ft | 349 kts | 201° |
| 2026-05-04 16:48 | 39.40039 | -0.51352 | 27953 ft | 348 kts | 201° |
| 2026-05-04 16:49 | 39.35398 | -0.52998 | 27427 ft | 344 kts | 201° |
| 2026-05-04 16:49 | 39.30812 | -0.54633 | 26764 ft | 338 kts | 201° |
| 2026-05-04 16:50 | 39.26343 | -0.56223 | 25886 ft | 333 kts | 201° |
| 2026-05-04 16:50 | 39.21907 | -0.57795 | 24968 ft | 328 kts | 201° |
| 2026-05-04 16:51 | 39.17519 | -0.59354 | 24018 ft | 326 kts | 201° |
| 2026-05-04 16:51 | 39.15332 | -0.60131 | 23530 ft | 326 kts | 201° |
| 2026-05-04 16:51 | 39.11002 | -0.61669 | 22482 ft | 323 kts | 201° |
| 2026-05-04 16:52 | 39.06701 | -0.63186 | 21543 ft | 318 kts | 201° |
| 2026-05-04 16:52 | 39.04571 | -0.63935 | 21068 ft | 317 kts | 201° |
| 2026-05-04 16:53 | 39.00336 | -0.65420 | 20155 ft | 314 kts | 201° |
| 2026-05-04 16:53 | 38.94065 | -0.67634 | 18780 ft | 312 kts | 201° |
| 2026-05-04 16:54 | 38.91973 | -0.68374 | 18326 ft | 312 kts | 201° |
| 2026-05-04 16:55 | 38.83657 | -0.71298 | 16497 ft | 308 kts | 200° |
| 2026-05-04 16:55 | 38.79533 | -0.72742 | 15636 ft | 307 kts | 200° |
| 2026-05-04 16:56 | 38.75460 | -0.74175 | 14797 ft | 305 kts | 200° |
| 2026-05-04 16:56 | 38.69324 | -0.76321 | 13517 ft | 304 kts | 200° |
| 2026-05-04 16:57 | 38.67285 | -0.77030 | 13092 ft | 303 kts | 200° |
| 2026-05-04 16:57 | 38.63302 | -0.78414 | 12258 ft | 288 kts | 201° |
| 2026-05-04 16:58 | 38.57808 | -0.80317 | 11545 ft | 254 kts | 201° |
| 2026-05-04 16:58 | 38.56125 | -0.80902 | 11247 ft | 248 kts | 201° |
| 2026-05-04 16:59 | 38.53223 | -0.82888 | 10759 ft | 233 kts | 231° |
| 2026-05-04 17:00 | 38.48775 | -0.88893 | 9756 ft | 235 kts | 225° |
| 2026-05-04 17:00 | 38.45009 | -0.92519 | 9172 ft | 209 kts | 218° |
| 2026-05-04 17:01 | 38.42618 | -0.94322 | 8566 ft | 197 kts | 214° |
| 2026-05-04 17:01 | 38.40168 | -0.95842 | 7806 ft | 193 kts | 209° |
| 2026-05-04 17:02 | 38.37688 | -0.97088 | 7135 ft | 193 kts | 206° |
| 2026-05-04 17:02 | 38.35044 | -0.97540 | 6672 ft | 208 kts | 161° |
| 2026-05-04 17:03 | 38.33936 | -0.96327 | 6448 ft | 219 kts | 120° |
| 2026-05-04 17:03 | 38.33498 | -0.94463 | 6194 ft | 222 kts | 101° |
| 2026-05-04 17:03 | 38.32979 | -0.90414 | 5200 ft | 235 kts | 100° |
| 2026-05-04 17:04 | 38.32445 | -0.86460 | 4578 ft | 218 kts | 101° |
| 2026-05-04 17:04 | 38.31948 | -0.82825 | 4055 ft | 200 kts | 102° |
| 2026-05-04 17:05 | 38.31485 | -0.79446 | 3517 ft | 190 kts | 103° |
| 2026-05-04 17:05 | 38.31037 | -0.76187 | 3029 ft | 183 kts | 102° |
| 2026-05-04 17:06 | 38.30602 | -0.73025 | 2549 ft | 180 kts | 102° |
| 2026-05-04 17:06 | 38.30388 | -0.71473 | 2307 ft | 174 kts | 102° |
| 2026-05-04 17:07 | 38.29981 | -0.68530 | 1863 ft | 167 kts | 102° |
| 2026-05-04 17:07 | 38.29846 | -0.67547 | 1726 ft | 166 kts | 102° |
| 2026-05-04 17:07 | 38.29593 | -0.65716 | 1438 ft | 150 kts | 101° |
| 2026-05-04 17:07 | 38.29417 | -0.64445 | 1251 ft | 143 kts | 102° |
| 2026-05-04 17:08 | 38.29245 | -0.63216 | 1043 ft | 139 kts | 102° |
| 2026-05-04 17:08 | 38.28911 | -0.60809 | 689 ft | 137 kts | 103° |
| 2026-05-04 17:08 | 38.28746 | -0.59613 | 504 ft | 138 kts | 104° |
| 2026-05-04 17:09 | 38.28587 | -0.58403 | 330 ft | 137 kts | 103° |
| 2026-05-04 17:09 | 38.28415 | -0.57226 | 160 ft | 134 kts | 103° |
| 2026-05-04 17:09 | 38.28267 | -0.56181 | 111 ft | 99 kts | 100° |
| 2026-05-04 17:10 | 38.28126 | -0.55147 | 84 ft | 30 kts | 96° |
| 2026-05-04 17:10 | 38.28189 | -0.54734 | 63 ft | 8 kts | 64° |
| 2026-05-04 17:11 | 38.28234 | -0.54719 | 65 ft | 7 kts | 332° |
| 2026-05-04 17:11 | 38.28248 | -0.54759 | 67 ft | 3 kts | 278° |
| 2026-05-04 17:11 | 38.28260 | -0.54852 | 73 ft | 10 kts | 280° |
| 2026-05-04 17:12 | 38.28276 | -0.54963 | 77 ft | 15 kts | 280° |
| 2026-05-04 17:12 | 38.28310 | -0.55190 | 88 ft | 9 kts | 297° |
| 2026-05-04 17:13 | 38.28389 | -0.55161 | 88 ft | 5 kts | 40° |
| 2026-05-04 17:14 | 38.28468 | -0.55245 | 89 ft | 5 kts | 357° |
| 2026-05-04 17:14 | 38.28500 | -0.55237 | 88 ft | 4 kts | 11° |
| 2026-05-04 17:14 | 38.28518 | -0.55233 | 91 ft | 0 kts | 10° |